Time;durP1;ratioP1;P1;durP2;ratioP2;P2;SDS_P1;SDS_P2;PMS_P1;PMS_P2;Temp;Humidity;BMP_temperature;BMP_pressure;BME280_temperature;BME280_humidity;BME280_pressure;Samples;Min_cycle;Max_cycle;Signal;HPM_P1;HPM_P2
2022/06/11 00:02:26;;;;;;;19.88;11.50;;;;;;;17.91;60.00;99778.47;5034092;28;20076;-79
2022/06/11 00:04:53;;;;;;;19.30;11.88;;;;;;;17.78;60.45;99754.97;5033263;28;20075;-79
2022/06/11 00:07:23;;;;;;;18.63;11.57;;;;;;;17.87;60.64;99790.88;5033502;28;20046;-79
2022/06/11 00:09:51;;;;;;;16.55;11.20;;;;;;;17.72;60.33;99757.78;5033491;28;20052;-79
2022/06/11 00:12:20;;;;;;;16.17;11.57;;;;;;;17.76;60.29;99766.50;5033693;28;20109;-79
2022/06/11 00:14:47;;;;;;;16.33;11.27;;;;;;;17.75;59.99;99776.22;5033673;28;20091;-80
2022/06/11 00:17:17;;;;;;;15.27;11.20;;;;;;;17.75;60.44;99778.84;5033394;28;20061;-78
2022/06/11 00:19:45;;;;;;;18.90;12.38;;;;;;;17.76;60.49;99780.56;5023224;28;20058;-79
2022/06/11 00:22:14;;;;;;;16.33;11.38;;;;;;;17.74;60.65;99784.16;5013369;28;20073;-78
2022/06/11 00:24:41;;;;;;;17.63;10.90;;;;;;;17.69;60.69;99792.22;5013763;28;20054;-79
2022/06/11 00:27:09;;;;;;;16.10;11.07;;;;;;;17.69;60.72;99784.31;5013524;28;20057;-77
2022/06/11 00:29:39;;;;;;;15.43;10.82;;;;;;;17.71;60.62;99785.13;5013483;28;20085;-78
2022/06/11 00:32:07;;;;;;;15.88;11.25;;;;;;;17.70;60.83;99778.13;5013496;28;20049;-78
2022/06/11 00:34:35;;;;;;;15.52;11.85;;;;;;;17.77;61.05;99798.16;5013742;28;20096;-78
2022/06/11 00:37:03;;;;;;;17.30;11.98;;;;;;;17.73;61.14;99799.16;5013289;28;20068;-78
2022/06/11 00:39:33;;;;;;;16.63;11.85;;;;;;;17.67;61.27;99799.31;5013354;28;20556;-78
2022/06/11 00:42:08;;;;;;;18.27;11.93;;;;;;;17.64;61.23;99801.16;5013341;28;20050;-79
2022/06/11 00:44:35;;;;;;;16.13;11.73;;;;;;;17.61;61.53;99799.47;5013617;28;20063;-78
2022/06/11 00:47:15;;;;;;;17.83;12.18;;;;;;;17.57;61.47;99805.75;5011919;28;20065;-80
2022/06/11 00:50:06;;;;;;;19.90;11.57;;;;;;;17.51;61.62;99790.94;5013375;28;20137;-80
2022/06/11 00:52:37;;;;;;;21.15;12.70;;;;;;;17.51;61.65;99808.53;5013743;28;20049;-80
2022/06/11 00:55:05;;;;;;;17.33;11.50;;;;;;;17.52;61.59;99805.88;5013140;28;20140;-79
2022/06/11 00:57:41;;;;;;;17.00;11.32;;;;;;;17.55;61.38;99799.63;5012394;28;20108;-80
2022/06/11 01:00:17;;;;;;;14.18;10.30;;;;;;;17.57;61.00;99804.00;5013121;28;20046;-80
2022/06/11 01:02:47;;;;;;;14.57;10.73;;;;;;;17.57;60.99;99800.47;5013276;28;20555;-79
2022/06/11 01:05:23;;;;;;;17.30;11.00;;;;;;;17.57;60.96;99793.44;5013125;28;20057;-78
2022/06/11 01:08:10;;;;;;;17.95;11.73;;;;;;;17.60;60.81;99805.69;5012166;28;20050;-79
2022/06/11 01:11:04;;;;;;;15.80;11.25;;;;;;;17.64;60.68;99811.72;5013015;28;20058;-80
2022/06/11 01:14:00;;;;;;;20.00;11.80;;;;;;;17.67;60.73;99820.44;5013111;28;20076;-79
2022/06/11 01:16:35;;;;;;;16.30;11.82;;;;;;;17.66;60.82;99825.75;5013104;28;20501;-80
2022/06/11 01:19:39;;;;;;;19.40;11.35;;;;;;;17.66;60.66;99817.84;5012920;28;20085;-79
2022/06/11 01:22:28;;;;;;;17.35;11.73;;;;;;;17.68;60.65;99819.56;5012808;28;20081;-79
2022/06/11 01:25:05;;;;;;;17.52;11.68;;;;;;;17.74;60.57;99822.00;5012875;28;20085;-80
2022/06/11 01:27:46;;;;;;;19.67;12.25;;;;;;;17.86;60.39;99834.06;5013134;28;20062;-79
2022/06/11 01:30:24;;;;;;;18.92;11.18;;;;;;;17.93;60.16;99832.13;5012801;28;20066;-80
2022/06/11 01:33:16;;;;;;;18.48;13.00;;;;;;;17.93;60.24;99832.13;5013112;28;20136;-80
2022/06/11 01:35:58;;;;;;;20.00;12.80;;;;;;;17.98;60.17;99840.78;5013049;28;20057;-80
2022/06/11 01:38:28;;;;;;;22.08;12.85;;;;;;;17.98;60.07;99836.41;5012998;28;20053;-80
2022/06/11 01:41:09;;;;;;;18.15;12.50;;;;;;;17.99;59.89;99830.19;5013093;28;20123;-81
2022/06/11 01:43:40;;;;;;;20.55;12.30;;;;;;;17.91;59.81;99816.31;5012832;28;20428;-81
2022/06/11 01:46:19;;;;;;;18.63;12.55;;;;;;;18.13;59.45;99827.19;5012778;28;20494;-80
2022/06/11 01:48:58;;;;;;;15.65;10.43;;;;;;;18.32;58.30;99832.78;5012776;28;20149;-79
2022/06/11 01:51:38;;;;;;;18.55;11.38;;;;;;;18.59;57.88;99832.91;5013073;28;20108;-80
2022/06/11 01:54:17;;;;;;;20.75;11.65;;;;;;;18.80;57.09;99834.06;5012584;28;20050;-79
2022/06/11 01:56:55;;;;;;;17.40;11.20;;;;;;;19.03;56.28;99839.47;5011542;28;20506;-80
2022/06/11 01:59:46;;;;;;;12.98;10.35;;;;;;;20.03;54.06;99827.34;5012988;28;20060;-81
2022/06/11 02:02:33;;;;;;;15.50;10.77;;;;;;;21.62;49.82;99830.03;5012189;28;20056;-80
2022/06/11 02:05:42;;;;;;;18.95;9.77;;;;;;;23.34;45.24;99832.78;5014431;28;20112;-80
2022/06/11 02:08:28;;;;;;;15.33;11.30;;;;;;;24.47;43.27;99822.47;5013623;28;20078;-80
2022/06/11 02:11:13;;;;;;;14.50;9.95;;;;;;;25.60;39.96;99822.34;5016394;28;20115;-80
2022/06/11 02:13:56;;;;;;;15.85;10.48;;;;;;;27.07;37.77;99828.41;5016384;28;20073;-78
2022/06/11 02:16:32;;;;;;;17.67;10.23;;;;;;;28.18;34.93;99824.50;5015100;28;20118;-78
2022/06/11 02:19:03;;;;;;;12.77;10.05;;;;;;;29.00;33.22;99816.81;5016560;28;20056;-79
2022/06/11 02:21:33;;;;;;;13.52;9.73;;;;;;;29.78;32.16;99824.41;5015656;28;20050;-79
2022/06/11 02:24:22;;;;;;;14.05;9.32;;;;;;;30.70;30.50;99820.81;5030652;28;20060;-80
2022/06/11 02:26:53;;;;;;;14.93;9.67;;;;;;;31.65;28.84;99820.19;5036415;28;20038;-78
2022/06/11 02:29:23;;;;;;;13.40;9.55;;;;;;;32.06;27.95;99823.91;5040216;28;20069;-77
2022/06/11 02:31:55;;;;;;;10.80;9.60;;;;;;;32.70;26.98;99817.34;5025404;28;20060;-79
2022/06/11 02:34:25;;;;;;;12.55;9.63;;;;;;;33.31;26.11;99819.88;5017285;28;20084;-81
2022/06/11 02:37:06;;;;;;;11.50;9.43;;;;;;;33.78;26.21;99808.34;5015914;28;20432;-81
2022/06/11 02:39:37;;;;;;;11.32;9.98;;;;;;;34.45;24.80;99809.16;5015655;28;20046;-79
2022/06/11 02:42:07;;;;;;;13.20;10.30;;;;;;;34.86;24.05;99810.50;5015361;28;20096;-79
2022/06/11 02:44:35;;;;;;;12.88;9.93;;;;;;;35.13;23.48;99803.38;5014779;28;20409;-79
2022/06/11 02:47:03;;;;;;;11.55;9.82;;;;;;;35.61;23.08;99817.53;5015347;28;20062;-79
2022/06/11 02:49:37;;;;;;;12.20;11.05;;;;;;;35.84;22.91;99807.91;5015515;28;20057;-79
2022/06/11 02:52:09;;;;;;;13.50;10.30;;;;;;;36.44;22.23;99798.03;5015343;28;20112;-80
2022/06/11 02:54:37;;;;;;;13.05;9.60;;;;;;;37.20;21.02;99801.72;5016121;28;20058;-81
2022/06/11 02:57:06;;;;;;;10.40;9.27;;;;;;;37.44;20.46;99803.59;5015152;28;20073;-81
2022/06/11 02:59:33;;;;;;;11.77;9.55;;;;;;;37.44;20.74;99796.28;5015195;28;20053;-81
2022/06/11 03:02:01;;;;;;;12.38;9.43;;;;;;;37.28;20.83;99782.69;5015354;28;20054;-80
2022/06/11 03:04:29;;;;;;;13.77;10.10;;;;;;;36.94;21.26;99789.06;5015034;28;20057;-79
2022/06/11 03:06:57;;;;;;;13.50;9.68;;;;;;;37.44;20.82;99792.72;5015130;28;20061;-80
2022/06/11 03:09:28;;;;;;;13.77;9.20;;;;;;;37.98;20.25;99790.28;5014803;28;20595;-80
2022/06/11 03:11:56;;;;;;;12.77;9.88;;;;;;;38.73;19.32;99780.84;5014657;28;20092;-80
2022/06/11 03:14:23;;;;;;;10.98;9.88;;;;;;;37.79;20.34;99774.31;5013497;28;20061;-80
2022/06/11 03:16:51;;;;;;;14.52;11.32;;;;;;;38.61;19.83;99782.25;5014727;28;20410;-80
2022/06/11 03:19:20;;;;;;;14.38;12.88;;;;;;;39.73;18.43;99794.47;5013913;28;20053;-81
2022/06/11 03:21:50;;;;;;;17.02;13.63;;;;;;;40.70;17.32;99789.94;5014328;28;20054;-81
2022/06/11 03:24:17;;;;;;;19.65;12.75;;;;;;;40.90;16.85;99773.78;5014583;28;20140;-81
2022/06/11 03:26:45;;;;;;;20.40;14.15;;;;;;;40.58;17.64;99786.03;5014592;28;20049;-81
2022/06/11 03:29:12;;;;;;;18.00;12.75;;;;;;;40.38;17.61;99772.06;5014448;28;20056;-81
2022/06/11 03:31:40;;;;;;;19.65;14.30;;;;;;;41.33;16.80;99771.06;5014695;28;20092;-81
2022/06/11 03:34:07;;;;;;;15.88;11.48;;;;;;;41.57;16.74;99780.78;5014194;28;20477;-81
2022/06/11 03:36:34;;;;;;;19.27;13.05;;;;;;;41.73;16.51;99777.75;5014582;28;20116;-81
2022/06/11 03:39:03;;;;;;;18.35;14.68;;;;;;;42.83;15.20;99785.34;5014407;28;20049;-81
2022/06/11 03:41:31;;;;;;;20.85;14.65;;;;;;;43.33;14.92;99786.72;5013402;28;20425;-82
2022/06/11 03:43:58;;;;;;;18.55;14.77;;;;;;;44.46;14.21;99795.91;5013789;28;20453;-82
2022/06/11 03:46:26;;;;;;;23.07;15.03;;;;;;;44.88;14.23;99791.72;5014054;28;20045;-82
2022/06/11 03:48:53;;;;;;;19.55;15.15;;;;;;;45.10;13.73;99788.63;5014118;28;20060;-81
2022/06/11 03:51:20;;;;;;;23.13;15.02;;;;;;;44.58;13.85;99796.94;5014097;28;20508;-81
2022/06/11 03:53:47;;;;;;;19.88;14.30;;;;;;;44.59;14.53;99798.59;5014248;28;20057;-80
2022/06/11 03:56:16;;;;;;;17.38;13.25;;;;;;;45.72;13.48;99794.31;5013902;28;20054;-81
2022/06/11 03:58:45;;;;;;;15.38;12.35;;;;;;;46.46;12.62;99800.75;5013966;28;20061;-80
2022/06/11 04:01:16;;;;;;;18.70;12.77;;;;;;;46.68;12.67;99792.84;5013832;28;20054;-80
2022/06/11 04:03:59;;;;;;;15.63;11.27;;;;;;;47.25;12.13;99803.53;5013982;28;20096;-79
2022/06/11 04:06:37;;;;;;;14.50;10.10;;;;;;;47.47;11.36;99814.84;5013838;28;20585;-80
2022/06/11 04:09:08;;;;;;;13.45;9.40;;;;;;;47.64;11.24;99816.97;5014369;28;20058;-80
2022/06/11 04:11:36;;;;;;;11.57;9.38;;;;;;;47.15;11.38;99806.03;5013872;28;20164;-80
2022/06/11 04:14:03;;;;;;;10.80;9.20;;;;;;;46.66;11.49;99808.81;5013678;28;20079;-80
2022/06/11 04:16:39;;;;;;;11.53;8.63;;;;;;;44.97;12.67;99803.31;5013518;28;20072;-79
2022/06/11 04:19:12;;;;;;;12.48;8.48;;;;;;;41.75;15.48;99807.69;5013576;28;20524;-79
2022/06/11 04:21:39;;;;;;;13.27;8.60;;;;;;;38.54;18.24;99820.31;5013752;28;20049;-80
2022/06/11 04:24:07;;;;;;;12.63;9.60;;;;;;;36.37;20.51;99806.00;5013010;28;20430;-81
2022/06/11 04:26:41;;;;;;;13.80;9.15;;;;;;;34.53;22.63;99811.97;5013622;28;20424;-82
2022/06/11 04:29:12;;;;;;;9.02;8.10;;;;;;;33.47;24.53;99811.19;5013868;28;20061;-83
2022/06/11 04:31:39;;;;;;;8.57;7.70;;;;;;;32.78;25.48;99807.56;5012454;28;20084;-79
2022/06/11 04:34:10;;;;;;;9.75;7.25;;;;;;;32.16;26.74;99808.56;5013318;28;20050;-80
2022/06/11 04:36:38;;;;;;;8.43;5.97;;;;;;;31.45;27.20;99808.38;5027831;28;20053;-80
2022/06/11 04:39:07;;;;;;;11.50;7.13;;;;;;;31.19;27.83;99812.25;5020165;28;20049;-80
2022/06/11 04:41:34;;;;;;;;;;;;;;;30.38;27.85;99808.09;5030869;28;20452;-81
2022/06/11 04:44:02;;;;;;;8.60;7.18;;;;;;;30.59;29.33;99813.59;5033109;28;19978;-80
2022/06/11 04:46:30;;;;;;;10.43;7.15;;;;;;;30.38;29.66;99808.09;5032715;28;20056;-79
2022/06/11 04:48:57;;;;;;;11.57;6.78;;;;;;;30.19;30.04;99806.84;5029016;28;20053;-79
2022/06/11 04:51:24;;;;;;;9.98;6.38;;;;;;;29.85;30.07;99827.47;5021493;28;20053;-78
2022/06/11 04:53:51;;;;;;;6.57;5.72;;;;;;;29.64;30.95;99812.94;5022362;28;20046;-80
2022/06/11 04:56:23;;;;;;;8.68;6.00;;;;;;;29.67;30.96;99824.34;5019889;28;20054;-79
2022/06/11 04:58:51;;;;;;;8.32;5.65;;;;;;;29.67;30.41;99824.34;5020208;28;20045;-79
2022/06/11 05:01:19;;;;;;;6.78;5.50;;;;;;;30.02;30.68;99812.69;5017728;28;20057;-81
2022/06/11 05:03:46;;;;;;;8.15;5.30;;;;;;;30.09;30.54;99822.00;5013220;28;20465;-81
2022/06/11 05:06:16;;;;;;;6.13;5.15;;;;;;;29.60;30.37;99815.91;5011886;28;20062;-81
2022/06/11 05:08:43;;;;;;;6.78;5.15;;;;;;;29.07;30.60;99834.22;5024645;28;20119;-81
2022/06/11 05:11:10;;;;;;;7.10;4.55;;;;;;;29.10;29.92;99825.94;5032707;28;20081;-82
2022/06/11 05:13:38;;;;;;;5.57;5.07;;;;;;;29.51;30.34;99824.69;5031607;28;20144;-80
2022/06/11 05:16:05;;;;;;;7.32;5.40;;;;;;;29.95;29.99;99820.41;5032593;28;20514;-84
2022/06/11 05:18:40;;;;;;;7.53;5.13;;;;;;;30.29;29.50;99819.63;5032913;28;20053;-81
2022/06/11 05:21:07;;;;;;;6.53;5.18;;;;;;;30.36;29.16;99832.47;5032904;28;20522;-82
2022/06/11 05:23:34;;;;;;;7.53;4.50;;;;;;;30.09;28.55;99821.16;5032486;28;20523;-80
2022/06/11 05:26:02;;;;;;;4.30;3.90;;;;;;;29.71;29.05;99822.31;5031746;28;20147;-81
2022/06/11 05:28:33;;;;;;;4.60;4.20;;;;;;;29.76;29.29;99831.75;5032663;28;20080;-80
2022/06/11 05:31:00;;;;;;;5.70;5.15;;;;;;;29.57;30.12;99813.41;5032689;28;20516;-85
2022/06/11 05:33:28;;;;;;;5.88;4.30;;;;;;;29.50;30.03;99830.16;5032407;28;20060;-82
2022/06/11 05:35:56;;;;;;;4.50;4.10;;;;;;;29.51;29.42;99829.19;5032737;28;20075;-81
2022/06/11 05:38:28;;;;;;;4.47;3.75;;;;;;;29.60;30.08;99834.72;5032297;28;20049;-82
2022/06/11 05:40:56;;;;;;;8.68;4.78;;;;;;;30.00;29.81;99834.34;5032322;28;20045;-82
2022/06/11 05:43:24;;;;;;;6.60;4.50;;;;;;;30.66;28.66;99840.91;5033420;28;20443;-82
2022/06/11 05:46:00;;;;;;;5.97;4.20;;;;;;;30.68;28.42;99833.56;5034779;28;20049;-81
2022/06/11 05:48:32;;;;;;;8.20;4.25;;;;;;;30.66;28.66;99836.38;5036489;28;20057;-83
2022/06/11 05:51:00;;;;;;;7.25;4.20;;;;;;;30.56;28.68;99838.09;5036531;28;20057;-81
2022/06/11 05:53:31;;;;;;;4.35;3.83;;;;;;;30.03;29.36;99833.28;5035100;28;20500;-81
2022/06/11 05:56:01;;;;;;;7.00;4.20;;;;;;;29.70;30.22;99826.81;5035665;28;20053;-82
2022/06/11 05:58:40;;;;;;;7.57;4.00;;;;;;;30.08;29.65;99831.06;5034327;28;20062;-81
2022/06/11 06:01:08;;;;;;;5.80;4.00;;;;;;;30.24;29.21;99830.72;5026798;28;20053;-81
2022/06/11 06:03:35;;;;;;;5.38;3.70;;;;;;;30.31;29.04;99840.06;5016122;28;20103;-81
2022/06/11 06:06:03;;;;;;;6.57;4.15;;;;;;;30.31;28.89;99831.09;5016263;28;20144;-80
2022/06/11 06:08:30;;;;;;;5.15;3.88;;;;;;;30.28;28.89;99824.13;5016360;28;20112;-79
2022/06/11 06:10:57;;;;;;;4.78;3.58;;;;;;;30.23;28.28;99841.63;5015208;28;20070;-79
2022/06/11 06:16:10;;;;;;;4.53;3.38;;;;;;;30.75;27.24;99832.94;5032062;28;20045;-79
2022/06/11 06:18:38;;;;;;;3.97;3.40;;;;;;;30.94;27.29;99842.25;5035426;28;20097;-78
2022/06/11 06:21:05;;;;;;;4.78;3.30;;;;;;;30.96;27.27;99837.59;5039425;28;20054;-80
2022/06/11 06:23:34;;;;;;;4.32;3.50;;;;;;;30.78;27.38;99846.19;5027300;28;20080;-81
2022/06/11 06:26:01;;;;;;;4.27;3.50;;;;;;;30.50;27.56;99849.38;5016946;28;20054;-79
2022/06/11 06:28:29;;;;;;;5.63;3.90;;;;;;;30.35;27.93;99851.44;5015575;28;20144;-79
2022/06/11 06:30:58;;;;;;;4.55;3.80;;;;;;;30.03;27.93;99827.91;5014027;28;20421;-80
2022/06/11 06:33:27;;;;;;;5.55;3.65;;;;;;;29.75;29.09;99853.38;5015654;28;20166;-80
2022/06/11 06:35:54;;;;;;;6.50;3.90;;;;;;;29.44;29.57;99828.78;5015973;28;20119;-80
2022/06/11 06:38:21;;;;;;;6.70;3.72;;;;;;;29.66;29.40;99856.75;5014233;28;20656;-81
2022/06/11 06:40:48;;;;;;;4.78;3.80;;;;;;;29.78;29.07;99863.94;5015033;28;20412;-80
2022/06/11 06:43:17;;;;;;;4.45;3.50;;;;;;;29.84;28.88;99858.09;5014714;28;20049;-80
2022/06/11 06:45:44;;;;;;;6.82;3.92;;;;;;;29.67;29.38;99850.41;5014870;28;20076;-81
2022/06/11 06:48:11;;;;;;;5.68;4.00;;;;;;;29.73;29.70;99863.44;5015425;28;20050;-81
2022/06/11 06:50:39;;;;;;;6.43;3.50;;;;;;;29.82;28.95;99857.34;5015709;28;20045;-82
2022/06/11 06:53:06;;;;;;;5.25;3.83;;;;;;;29.71;28.84;99866.25;5015778;28;20502;-79
2022/06/11 06:55:34;;;;;;;4.47;3.42;;;;;;;29.59;29.30;99864.44;5012677;28;20520;-80
2022/06/11 06:58:01;;;;;;;6.40;4.05;;;;;;;29.71;28.78;99866.25;5015500;28;20049;-80
2022/06/11 07:00:28;;;;;;;7.07;3.80;;;;;;;29.94;28.93;99863.59;5017054;28;20054;-82
2022/06/11 07:02:55;;;;;;;6.30;3.70;;;;;;;30.21;28.49;99868.69;5028028;28;20513;-81
2022/06/11 07:05:23;;;;;;;3.88;3.47;;;;;;;30.03;28.43;99865.59;5026534;28;20061;-80
2022/06/11 07:07:50;;;;;;;4.20;3.80;;;;;;;29.60;29.50;99866.16;5014841;28;20073;-80
2022/06/11 07:10:19;;;;;;;3.72;3.20;;;;;;;29.58;29.09;99866.28;5028984;28;20421;-80
2022/06/11 07:12:46;;;;;;;4.05;3.15;;;;;;;29.57;29.10;99866.38;5034865;28;20160;-81
2022/06/11 07:15:13;;;;;;;3.42;3.10;;;;;;;29.70;29.07;99867.19;5034553;28;20057;-81
2022/06/11 07:20:42;;;;;;;5.60;3.10;;;;;;;29.67;29.19;99855.78;5021136;28;20108;-86
2022/06/11 07:23:37;;;;;;;3.00;2.80;;;;;;;29.05;30.17;99851.44;5009710;28;20049;-80
2022/06/11 07:26:09;;;;;;;8.98;3.38;;;;;;;28.64;30.67;99826.59;5033239;28;20187;-85
2022/06/11 07:28:51;;;;;;;5.88;2.95;;;;;;;28.87;30.28;99859.88;5033326;28;20057;-81
2022/06/11 07:31:18;;;;;;;5.15;2.88;;;;;;;28.83;30.07;99857.53;5033966;28;20079;-82
2022/06/11 07:33:48;;;;;;;2.95;2.70;;;;;;;29.11;29.41;99859.09;5032735;28;20513;-81
2022/06/11 07:36:15;;;;;;;;;;;;;;;28.81;29.83;99856.78;5026806;28;20053;-82
2022/06/11 07:38:42;;;;;;;3.30;3.00;;;;;;;29.00;30.06;99865.22;5027815;28;20297;-82
2022/06/11 07:41:11;;;;;;;3.30;2.90;;;;;;;28.85;30.47;99874.41;5027492;28;20053;-81
2022/06/11 07:43:39;;;;;;;3.67;3.38;;;;;;;28.72;31.03;99872.59;5031335;28;20057;-83
2022/06/11 07:46:12;;;;;;;3.83;3.20;;;;;;;28.94;29.24;99860.28;5026569;28;20041;-83
2022/06/11 07:48:40;;;;;;;3.53;2.88;;;;;;;29.05;29.39;99868.41;5024534;28;20109;-82
2022/06/11 07:51:07;;;;;;;3.17;2.90;;;;;;;29.29;28.97;99879.22;5028613;28;20055;-81
2022/06/11 07:53:34;;;;;;;4.50;3.10;;;;;;;29.35;29.39;99880.59;5032286;28;20417;-80
2022/06/11 07:56:01;;;;;;;5.28;3.05;;;;;;;29.35;29.89;99880.59;5032897;28;20054;-80
2022/06/11 07:58:31;;;;;;;3.70;2.80;;;;;;;29.58;29.08;99877.03;5034064;28;20447;-82
2022/06/11 08:00:58;;;;;;;6.03;3.50;;;;;;;29.56;29.22;99851.22;5034052;28;20103;-82
2022/06/11 08:03:31;;;;;;;5.47;3.67;;;;;;;29.79;29.20;99874.59;5033468;28;20053;-80
2022/06/11 08:05:59;;;;;;;3.47;3.03;;;;;;;29.74;29.26;99868.69;5032698;28;20053;-81
2022/06/11 08:08:27;;;;;;;3.90;3.20;;;;;;;29.40;29.81;99863.16;5027203;28;20056;-81
2022/06/11 08:10:59;;;;;;;6.93;3.38;;;;;;;29.26;30.44;99882.16;5023935;28;20424;-80
2022/06/11 08:13:26;;;;;;;4.90;3.03;;;;;;;29.04;30.11;99871.22;5014164;28;20057;-81
2022/06/11 08:15:54;;;;;;;3.53;2.83;;;;;;;28.88;29.82;99875.03;5013883;28;20085;-83
2022/06/11 08:18:22;;;;;;;3.38;2.72;;;;;;;28.93;29.55;99874.69;5032198;28;20081;-82
2022/06/11 08:20:51;;;;;;;5.63;2.80;;;;;;;29.08;28.94;99852.06;5026656;28;20049;-81
2022/06/11 08:23:22;;;;;;;4.97;3.05;;;;;;;29.15;29.54;99860.59;5031983;28;20068;-82
2022/06/11 08:25:51;;;;;;;6.63;3.95;;;;;;;29.20;29.39;99867.31;5033303;28;20045;-82
2022/06/11 08:28:19;;;;;;;6.45;3.40;;;;;;;29.30;29.05;99875.56;5032636;28;20068;-79
2022/06/11 08:30:47;;;;;;;5.82;4.15;;;;;;;29.15;28.56;99863.28;5032996;28;20107;-79
2022/06/11 08:33:15;;;;;;;11.45;5.97;;;;;;;29.39;29.06;99882.94;5030630;28;20053;-82
2022/06/11 08:35:43;;;;;;;9.32;4.22;;;;;;;29.31;28.64;99866.50;5046294;28;20521;-82
2022/06/11 08:38:11;;;;;;;5.10;3.03;;;;;;;29.15;28.92;99877.56;5032060;28;20077;-79
2022/06/11 08:40:45;;;;;;;3.80;3.15;;;;;;;28.91;29.26;99872.13;5031246;28;20087;-79
2022/06/11 08:43:20;;;;;;;7.90;3.42;;;;;;;28.56;29.87;99869.28;5032405;28;20107;-78
2022/06/11 08:45:51;;;;;;;5.60;3.33;;;;;;;28.27;30.31;99876.72;5031413;28;20045;-80
2022/06/11 08:48:19;;;;;;;5.45;3.75;;;;;;;28.12;30.81;99882.16;5031052;28;20041;-80
2022/06/11 08:51:04;;;;;;;4.82;3.65;;;;;;;27.83;30.85;99889.50;5032178;28;20484;-79
2022/06/11 08:53:35;;;;;;;5.75;2.90;;;;;;;27.83;31.05;99892.19;5022350;28;20417;-79
2022/06/11 08:56:02;;;;;;;4.30;2.70;;;;;;;27.92;30.83;99880.88;5012280;28;20120;-80
2022/06/11 08:58:55;;;;;;;5.65;4.10;;;;;;;28.08;30.18;99886.03;5011502;28;20148;-79
2022/06/11 09:01:42;;;;;;;2.75;2.55;;;;;;;28.00;30.33;99876.78;5012869;28;20445;-78
2022/06/11 09:04:36;;;;;;;11.40;3.63;;;;;;;28.05;30.70;99888.06;5015368;28;20045;-79
2022/06/11 09:07:20;;;;;;;6.13;3.75;;;;;;;28.10;31.15;99878.72;5029898;28;20515;-79
2022/06/11 09:10:11;;;;;;;5.85;3.70;;;;;;;28.26;31.26;99875.81;5046360;28;20068;-79
2022/06/11 09:13:04;;;;;;;7.60;3.90;;;;;;;28.23;31.33;99886.78;5032354;28;20084;-78
2022/06/11 09:15:47;;;;;;;5.65;3.50;;;;;;;28.00;32.11;99882.16;5031130;28;20071;-79
2022/06/11 09:18:58;;;;;;;8.65;4.15;;;;;;;27.70;32.96;99885.94;5031575;28;20057;-79
2022/06/11 09:21:42;;;;;;;8.93;4.63;;;;;;;27.37;33.68;99876.50;5032466;28;20183;-79
2022/06/11 09:24:15;;;;;;;6.88;3.80;;;;;;;27.38;33.69;99888.94;5031335;28;20166;-78
2022/06/11 09:27:14;;;;;;;12.38;3.95;;;;;;;27.28;34.03;99866.38;5032461;28;20144;-79
2022/06/11 09:29:59;;;;;;;11.15;4.30;;;;;;;27.52;34.35;99883.53;5035985;28;20144;-79
2022/06/11 09:32:35;;;;;;;7.55;4.07;;;;;;;27.73;34.34;99872.31;5032466;28;20061;-79
2022/06/11 09:35:12;;;;;;;10.10;5.10;;;;;;;27.70;34.61;99876.03;5032612;28;20123;-78
2022/06/11 09:37:39;;;;;;;9.18;5.63;;;;;;;27.36;35.00;99864.03;5032075;28;20056;-79
2022/06/11 09:40:39;;;;;;;7.07;4.00;;;;;;;27.31;35.40;99893.84;5032354;28;20088;-79
2022/06/11 09:43:54;;;;;;;10.95;4.35;;;;;;;27.34;35.92;99890.97;5032426;28;20068;-78
2022/06/11 09:46:43;;;;;;;10.98;4.10;;;;;;;27.33;36.05;99881.19;5010293;28;20433;-78
2022/06/11 09:49:48;;;;;;;8.43;4.90;;;;;;;27.43;36.47;99891.34;5010819;28;20050;-79
2022/06/11 09:52:37;;;;;;;10.80;4.63;;;;;;;27.23;34.79;99887.25;5029587;28;20140;-79
2022/06/11 09:55:28;;;;;;;9.60;5.03;;;;;;;27.29;34.89;99890.41;5030909;28;20085;-77
2022/06/11 09:58:21;;;;;;;9.02;3.75;;;;;;;27.29;34.32;99889.53;5032778;28;20104;-79
2022/06/11 10:01:01;;;;;;;7.05;4.50;;;;;;;27.06;34.68;99889.22;5019460;28;20053;-77
2022/06/11 10:03:32;;;;;;;7.63;5.10;;;;;;;27.04;35.07;99882.19;5032414;28;20515;-80
2022/06/11 10:06:09;;;;;;;6.90;4.13;;;;;;;26.76;34.75;99871.47;5033000;28;20053;-78
2022/06/11 10:08:49;;;;;;;4.47;3.55;;;;;;;26.44;35.38;99878.81;5033007;28;20067;-78
2022/06/11 10:11:22;;;;;;;4.93;2.58;;;;;;;26.21;34.23;99880.22;5049430;28;20062;-79
2022/06/11 10:17:01;;;;;;;3.05;2.75;;;;;;;26.06;34.39;99873.97;5054710;28;20079;-79
2022/06/11 10:19:42;;;;;;;8.38;6.07;;;;;;;26.23;34.41;99875.63;5044075;28;20049;-79
2022/06/11 10:22:23;;;;;;;4.82;3.72;;;;;;;26.47;33.93;99883.97;5032289;28;20068;-80
2022/06/11 10:25:05;;;;;;;3.20;2.80;;;;;;;26.66;33.39;99882.84;5032305;28;20057;-80
2022/06/11 10:27:39;;;;;;;5.65;3.10;;;;;;;26.83;33.17;99884.47;5046970;28;20488;-79
2022/06/11 10:30:24;;;;;;;5.22;3.28;;;;;;;26.76;32.85;99882.16;5034735;28;20053;-79
2022/06/11 10:32:56;;;;;;;4.15;2.60;;;;;;;26.40;33.69;99884.47;5035030;28;20440;-78
2022/06/11 10:35:31;;;;;;;4.65;3.15;;;;;;;26.08;34.64;99880.09;5035288;28;20643;-79
2022/06/11 10:38:04;;;;;;;8.70;3.47;;;;;;;25.79;35.40;99881.84;5035642;28;20140;-79
2022/06/11 10:40:37;;;;;;;6.07;4.38;;;;;;;25.58;35.58;99883.97;5035247;28;20061;-79
2022/06/11 10:43:30;;;;;;;6.22;5.18;;;;;;;25.44;36.19;99884.75;5035480;28;20053;-79
2022/06/11 10:45:57;;;;;;;5.53;4.40;;;;;;;25.19;37.10;99887.06;5035803;28;20053;-79
2022/06/11 10:48:35;;;;;;;8.70;4.07;;;;;;;24.87;38.69;99881.75;5033789;28;20509;-78
2022/06/11 10:51:15;;;;;;;5.00;3.70;;;;;;;24.63;39.16;99868.81;5035100;28;20108;-78
2022/06/11 10:54:00;;;;;;;5.30;4.07;;;;;;;24.86;38.78;99894.22;5035012;28;20061;-79
2022/06/11 10:56:37;;;;;;;5.80;3.97;;;;;;;25.00;38.64;99892.63;5035169;28;20096;-79
2022/06/11 10:59:23;;;;;;;4.88;3.05;;;;;;;24.99;37.54;99878.38;5034917;28;20399;-78
2022/06/11 11:01:59;;;;;;;3.90;3.00;;;;;;;24.76;37.71;99882.34;5035581;28;20140;-79
2022/06/11 11:04:53;;;;;;;3.80;2.90;;;;;;;24.62;38.29;99875.06;5034684;28;20049;-79
2022/06/11 11:07:20;;;;;;;4.93;3.35;;;;;;;24.32;39.31;99875.75;5035054;28;20072;-80
2022/06/11 11:09:48;;;;;;;7.50;2.80;;;;;;;24.11;38.99;99895.56;5035010;28;20061;-79
2022/06/11 11:12:33;;;;;;;5.25;3.03;;;;;;;23.86;38.78;99877.31;5034377;28;20141;-79
2022/06/11 11:15:09;;;;;;;5.05;3.03;;;;;;;23.86;38.99;99883.50;5034547;28;20421;-79
2022/06/11 11:17:48;;;;;;;9.02;2.78;;;;;;;24.00;39.06;99884.59;5034493;28;20053;-77
2022/06/11 11:20:39;;;;;;;7.05;4.07;;;;;;;23.95;39.39;99883.97;5034532;28;20485;-78
2022/06/11 11:23:10;;;;;;;17.25;10.15;;;;;;;23.94;40.18;99883.13;5034702;28;20133;-78
2022/06/11 11:26:05;;;;;;;9.85;6.57;;;;;;;23.86;39.66;99878.16;5033140;28;20053;-79
2022/06/11 11:28:43;;;;;;;13.25;6.78;;;;;;;23.98;40.02;99882.00;5034398;28;20132;-78
2022/06/11 11:31:20;;;;;;;12.02;6.55;;;;;;;24.20;40.10;99883.53;5034353;28;20061;-78
2022/06/11 11:34:03;;;;;;;11.32;6.47;;;;;;;24.26;40.14;99872.53;5034862;28;20145;-79
2022/06/11 11:36:32;;;;;;;10.30;4.55;;;;;;;24.39;40.72;99862.06;5034253;28;20115;-78
2022/06/11 11:39:13;;;;;;;11.80;6.20;;;;;;;24.60;40.45;99876.09;5034173;28;20054;-79
2022/06/11 11:41:49;;;;;;;11.20;5.90;;;;;;;24.64;40.76;99877.66;5033358;28;20137;-78
2022/06/11 11:44:17;;;;;;;8.75;5.95;;;;;;;24.68;41.00;99848.03;5033027;28;20467;-78
2022/06/11 11:46:50;;;;;;;6.22;4.90;;;;;;;24.82;40.98;99865.94;5033804;28;20053;-79
2022/06/11 11:49:27;;;;;;;9.60;5.57;;;;;;;24.75;41.52;99856.56;5033960;28;20049;-78
2022/06/11 11:52:10;;;;;;;9.85;5.68;;;;;;;24.86;42.02;99872.84;5033991;28;20501;-79
2022/06/11 11:54:45;;;;;;;9.43;5.25;;;;;;;25.11;41.61;99876.84;5033922;28;20052;-79
2022/06/11 11:57:15;;;;;;;6.38;4.90;;;;;;;25.31;40.95;99851.66;5033717;28;20057;-78
2022/06/11 12:00:21;;;;;;;9.02;5.18;;;;;;;25.55;40.83;99878.78;5032044;28;20096;-78
2022/06/11 12:02:55;;;;;;;7.63;4.35;;;;;;;25.22;41.27;99869.09;5029556;28;20060;-78
2022/06/11 12:05:25;;;;;;;8.70;5.15;;;;;;;25.36;41.42;99878.13;5034347;28;20052;-79
2022/06/11 12:07:55;;;;;;;7.75;4.13;;;;;;;25.53;40.94;99883.34;5033420;28;20099;-78
2022/06/11 12:10:30;;;;;;;5.88;4.40;;;;;;;25.29;41.65;99867.78;5032422;28;20057;-78